sensor_id;sensor_type;location;lat;lon;timestamp;temperature;humidity
26589;DHT22;14235;48.532;8.722;2022-09-27T00:00:40;11.10;99.90
26589;DHT22;14235;48.532;8.722;2022-09-27T00:03:10;11.10;99.90
26589;DHT22;14235;48.532;8.722;2022-09-27T00:05:37;11.10;99.90
26589;DHT22;14235;48.532;8.722;2022-09-27T00:08:03;11.20;99.90
26589;DHT22;14235;48.532;8.722;2022-09-27T00:10:29;11.20;99.90
26589;DHT22;14235;48.532;8.722;2022-09-27T00:12:55;11.40;99.90
26589;DHT22;14235;48.532;8.722;2022-09-27T00:15:21;11.20;99.90
26589;DHT22;14235;48.532;8.722;2022-09-27T00:17:46;11.20;99.90
26589;DHT22;14235;48.532;8.722;2022-09-27T00:20:16;11.20;99.90
26589;DHT22;14235;48.532;8.722;2022-09-27T00:22:42;11.20;99.90
26589;DHT22;14235;48.532;8.722;2022-09-27T00:25:08;11.20;99.90
26589;DHT22;14235;48.532;8.722;2022-09-27T00:27:33;11.20;99.90
26589;DHT22;14235;48.532;8.722;2022-09-27T00:29:59;11.10;99.90
26589;DHT22;14235;48.532;8.722;2022-09-27T00:32:24;11.30;99.90
26589;DHT22;14235;48.532;8.722;2022-09-27T00:34:50;11.10;99.90
26589;DHT22;14235;48.532;8.722;2022-09-27T00:37:15;11.10;99.90
26589;DHT22;14235;48.532;8.722;2022-09-27T00:39:41;11.20;99.90
26589;DHT22;14235;48.532;8.722;2022-09-27T00:42:11;11.30;99.90
26589;DHT22;14235;48.532;8.722;2022-09-27T00:47:13;11.40;99.90
26589;DHT22;14235;48.532;8.722;2022-09-27T00:49:45;11.20;99.90
26589;DHT22;14235;48.532;8.722;2022-09-27T00:52:17;11.20;99.90
26589;DHT22;14235;48.532;8.722;2022-09-27T00:54:47;11.40;99.90
26589;DHT22;14235;48.532;8.722;2022-09-27T00:57:15;11.30;99.90
26589;DHT22;14235;48.532;8.722;2022-09-27T00:59:52;11.30;99.90
26589;DHT22;14235;48.532;8.722;2022-09-27T01:02:19;11.20;99.90
26589;DHT22;14235;48.532;8.722;2022-09-27T01:04:45;11.10;99.90
26589;DHT22;14235;48.532;8.722;2022-09-27T01:07:12;11.10;99.90
26589;DHT22;14235;48.532;8.722;2022-09-27T01:09:37;11.10;99.90
26589;DHT22;14235;48.532;8.722;2022-09-27T01:14:57;11.20;99.90
26589;DHT22;14235;48.532;8.722;2022-09-27T01:33:57;11.20;99.90
26589;DHT22;14235;48.532;8.722;2022-09-27T01:47:58;11.10;99.90
26589;DHT22;14235;48.532;8.722;2022-09-27T01:50:36;11.20;99.90
26589;DHT22;14235;48.532;8.722;2022-09-27T01:53:40;11.10;99.90
26589;DHT22;14235;48.532;8.722;2022-09-27T01:56:22;11.20;99.90
26589;DHT22;14235;48.532;8.722;2022-09-27T01:58:56;11.10;99.90
26589;DHT22;14235;48.532;8.722;2022-09-27T02:01:25;11.10;99.90
26589;DHT22;14235;48.532;8.722;2022-09-27T02:03:54;11.00;99.90
26589;DHT22;14235;48.532;8.722;2022-09-27T02:06:25;11.00;99.90
26589;DHT22;14235;48.532;8.722;2022-09-27T02:09:09;11.00;99.90
26589;DHT22;14235;48.532;8.722;2022-09-27T02:11:40;11.00;99.90
26589;DHT22;14235;48.532;8.722;2022-09-27T02:14:18;11.00;99.90
26589;DHT22;14235;48.532;8.722;2022-09-27T02:16:51;11.10;99.90
26589;DHT22;14235;48.532;8.722;2022-09-27T02:22:29;11.00;99.90
26589;DHT22;14235;48.532;8.722;2022-09-27T02:25:01;11.00;99.90
26589;DHT22;14235;48.532;8.722;2022-09-27T02:27:55;11.00;99.90
26589;DHT22;14235;48.532;8.722;2022-09-27T02:30:18;11.00;99.90
26589;DHT22;14235;48.532;8.722;2022-09-27T02:32:44;11.00;99.90
26589;DHT22;14235;48.532;8.722;2022-09-27T02:37:41;10.90;99.90
26589;DHT22;14235;48.532;8.722;2022-09-27T02:40:07;10.90;99.90
26589;DHT22;14235;48.532;8.722;2022-09-27T02:42:33;11.00;99.90
26589;DHT22;14235;48.532;8.722;2022-09-27T02:44:59;10.90;99.90
26589;DHT22;14235;48.532;8.722;2022-09-27T02:53:12;10.90;99.90
26589;DHT22;14235;48.532;8.722;2022-09-27T02:58:41;10.90;99.90
26589;DHT22;14235;48.532;8.722;2022-09-27T03:04:35;10.80;99.90
26589;DHT22;14235;48.532;8.722;2022-09-27T03:07:02;10.80;99.90
26589;DHT22;14235;48.532;8.722;2022-09-27T03:09:36;10.80;99.90
26589;DHT22;14235;48.532;8.722;2022-09-27T03:12:05;10.90;99.90
26589;DHT22;14235;48.532;8.722;2022-09-27T03:14:30;10.80;99.90
26589;DHT22;14235;48.532;8.722;2022-09-27T03:16:56;11.20;99.90
26589;DHT22;14235;48.532;8.722;2022-09-27T03:19:22;10.90;99.90
26589;DHT22;14235;48.532;8.722;2022-09-27T03:21:49;10.80;99.90
26589;DHT22;14235;48.532;8.722;2022-09-27T03:24:14;10.90;99.90
26589;DHT22;14235;48.532;8.722;2022-09-27T03:26:40;10.90;99.90
26589;DHT22;14235;48.532;8.722;2022-09-27T03:29:06;11.10;99.90
26589;DHT22;14235;48.532;8.722;2022-09-27T03:31:31;10.80;99.90
26589;DHT22;14235;48.532;8.722;2022-09-27T03:33:57;10.80;99.90
26589;DHT22;14235;48.532;8.722;2022-09-27T03:36:22;10.80;99.90
26589;DHT22;14235;48.532;8.722;2022-09-27T03:38:48;10.60;99.90
26589;DHT22;14235;48.532;8.722;2022-09-27T03:41:13;10.80;99.90
26589;DHT22;14235;48.532;8.722;2022-09-27T03:43:39;10.70;99.90
26589;DHT22;14235;48.532;8.722;2022-09-27T03:46:04;10.90;99.90
26589;DHT22;14235;48.532;8.722;2022-09-27T03:48:30;10.50;99.90
26589;DHT22;14235;48.532;8.722;2022-09-27T03:50:56;10.70;99.90
26589;DHT22;14235;48.532;8.722;2022-09-27T03:53:21;10.90;99.90
26589;DHT22;14235;48.532;8.722;2022-09-27T03:55:47;10.90;99.90
26589;DHT22;14235;48.532;8.722;2022-09-27T03:58:13;10.70;99.90
26589;DHT22;14235;48.532;8.722;2022-09-27T04:00:39;10.90;99.90
26589;DHT22;14235;48.532;8.722;2022-09-27T04:03:05;10.70;99.90
26589;DHT22;14235;48.532;8.722;2022-09-27T04:05:31;10.70;99.90
26589;DHT22;14235;48.532;8.722;2022-09-27T04:07:57;10.70;99.90
26589;DHT22;14235;48.532;8.722;2022-09-27T04:10:23;10.70;99.90
26589;DHT22;14235;48.532;8.722;2022-09-27T04:12:49;10.60;99.90
26589;DHT22;14235;48.532;8.722;2022-09-27T04:15:15;10.60;99.90
26589;DHT22;14235;48.532;8.722;2022-09-27T04:17:42;10.60;99.90
26589;DHT22;14235;48.532;8.722;2022-09-27T04:20:09;10.60;99.90
26589;DHT22;14235;48.532;8.722;2022-09-27T04:22:38;10.60;99.90
26589;DHT22;14235;48.532;8.722;2022-09-27T04:25:04;10.50;99.90
26589;DHT22;14235;48.532;8.722;2022-09-27T04:27:30;10.40;99.90
26589;DHT22;14235;48.532;8.722;2022-09-27T04:29:55;10.50;99.90
26589;DHT22;14235;48.532;8.722;2022-09-27T04:32:21;10.50;99.90
26589;DHT22;14235;48.532;8.722;2022-09-27T04:34:46;10.50;99.90
26589;DHT22;14235;48.532;8.722;2022-09-27T04:37:31;10.50;99.90
26589;DHT22;14235;48.532;8.722;2022-09-27T04:39:57;10.60;99.90
26589;DHT22;14235;48.532;8.722;2022-09-27T04:42:22;10.50;99.90
26589;DHT22;14235;48.532;8.722;2022-09-27T04:44:48;10.60;99.90
26589;DHT22;14235;48.532;8.722;2022-09-27T04:47:14;10.80;99.90
26589;DHT22;14235;48.532;8.722;2022-09-27T04:49:39;10.50;99.90
26589;DHT22;14235;48.532;8.722;2022-09-27T04:52:05;10.50;99.90
26589;DHT22;14235;48.532;8.722;2022-09-27T04:54:31;10.50;99.90
26589;DHT22;14235;48.532;8.722;2022-09-27T04:56:56;10.50;99.90
26589;DHT22;14235;48.532;8.722;2022-09-27T04:59:22;10.50;99.90
26589;DHT22;14235;48.532;8.722;2022-09-27T05:01:48;10.50;99.90
26589;DHT22;14235;48.532;8.722;2022-09-27T05:04:15;10.60;99.90
26589;DHT22;14235;48.532;8.722;2022-09-27T05:06:40;10.40;99.90
26589;DHT22;14235;48.532;8.722;2022-09-27T05:09:06;10.40;99.90
26589;DHT22;14235;48.532;8.722;2022-09-27T05:11:31;10.50;99.90
26589;DHT22;14235;48.532;8.722;2022-09-27T05:13:57;10.40;99.90
26589;DHT22;14235;48.532;8.722;2022-09-27T05:16:22;10.40;99.90
26589;DHT22;14235;48.532;8.722;2022-09-27T05:18:49;10.40;99.90
26589;DHT22;14235;48.532;8.722;2022-09-27T05:21:15;10.60;99.90
26589;DHT22;14235;48.532;8.722;2022-09-27T05:23:40;10.50;99.90
26589;DHT22;14235;48.532;8.722;2022-09-27T05:26:07;10.60;99.90
26589;DHT22;14235;48.532;8.722;2022-09-27T05:28:32;10.30;99.90
26589;DHT22;14235;48.532;8.722;2022-09-27T05:31:00;10.40;99.90
26589;DHT22;14235;48.532;8.722;2022-09-27T05:33:26;10.40;99.90
26589;DHT22;14235;48.532;8.722;2022-09-27T05:35:55;10.40;99.90
26589;DHT22;14235;48.532;8.722;2022-09-27T05:38:22;10.30;99.90
26589;DHT22;14235;48.532;8.722;2022-09-27T05:40:48;10.40;99.90
26589;DHT22;14235;48.532;8.722;2022-09-27T05:58:04;10.10;99.90
26589;DHT22;14235;48.532;8.722;2022-09-27T06:00:31;10.20;99.90
26589;DHT22;14235;48.532;8.722;2022-09-27T06:05:27;10.10;99.90
26589;DHT22;14235;48.532;8.722;2022-09-27T06:08:10;10.10;99.90
26589;DHT22;14235;48.532;8.722;2022-09-27T06:10:37;10.10;99.90
26589;DHT22;14235;48.532;8.722;2022-09-27T06:13:05;10.00;99.90
26589;DHT22;14235;48.532;8.722;2022-09-27T06:15:32;10.10;99.90
26589;DHT22;14235;48.532;8.722;2022-09-27T06:18:03;10.10;99.90
26589;DHT22;14235;48.532;8.722;2022-09-27T06:20:29;10.10;99.90
26589;DHT22;14235;48.532;8.722;2022-09-27T06:23:06;10.00;99.90
26589;DHT22;14235;48.532;8.722;2022-09-27T06:25:32;10.00;99.90
26589;DHT22;14235;48.532;8.722;2022-09-27T06:27:58;10.10;99.90
26589;DHT22;14235;48.532;8.722;2022-09-27T06:30:23;10.10;99.90
26589;DHT22;14235;48.532;8.722;2022-09-27T06:32:55;10.20;99.90
26589;DHT22;14235;48.532;8.722;2022-09-27T06:35:20;10.20;99.90
26589;DHT22;14235;48.532;8.722;2022-09-27T06:37:49;10.10;99.90
26589;DHT22;14235;48.532;8.722;2022-09-27T06:40:15;10.20;99.90
26589;DHT22;14235;48.532;8.722;2022-09-27T06:42:40;10.30;99.90
26589;DHT22;14235;48.532;8.722;2022-09-27T06:45:06;10.20;99.90
26589;DHT22;14235;48.532;8.722;2022-09-27T06:47:36;10.20;99.90
26589;DHT22;14235;48.532;8.722;2022-09-27T06:50:03;10.20;99.90
26589;DHT22;14235;48.532;8.722;2022-09-27T06:52:34;10.20;99.90
26589;DHT22;14235;48.532;8.722;2022-09-27T06:55:02;10.40;99.90
26589;DHT22;14235;48.532;8.722;2022-09-27T06:57:29;10.40;99.90
26589;DHT22;14235;48.532;8.722;2022-09-27T07:00:13;10.40;99.90
26589;DHT22;14235;48.532;8.722;2022-09-27T07:02:48;10.40;99.90
26589;DHT22;14235;48.532;8.722;2022-09-27T07:05:18;10.30;99.90
26589;DHT22;14235;48.532;8.722;2022-09-27T07:07:44;10.20;99.90
26589;DHT22;14235;48.532;8.722;2022-09-27T07:10:11;10.10;99.90
26589;DHT22;14235;48.532;8.722;2022-09-27T07:12:37;10.20;99.90
26589;DHT22;14235;48.532;8.722;2022-09-27T07:15:04;10.20;99.90
26589;DHT22;14235;48.532;8.722;2022-09-27T07:17:30;10.30;99.90
26589;DHT22;14235;48.532;8.722;2022-09-27T07:19:56;10.30;99.90
26589;DHT22;14235;48.532;8.722;2022-09-27T07:22:22;10.40;99.90
26589;DHT22;14235;48.532;8.722;2022-09-27T07:24:47;10.40;99.90
26589;DHT22;14235;48.532;8.722;2022-09-27T07:27:13;10.40;99.90
26589;DHT22;14235;48.532;8.722;2022-09-27T07:29:39;10.40;99.90
26589;DHT22;14235;48.532;8.722;2022-09-27T07:32:05;10.30;99.90
26589;DHT22;14235;48.532;8.722;2022-09-27T07:34:34;10.40;99.90
26589;DHT22;14235;48.532;8.722;2022-09-27T07:37:00;10.30;99.90
26589;DHT22;14235;48.532;8.722;2022-09-27T07:39:30;10.20;99.90
26589;DHT22;14235;48.532;8.722;2022-09-27T07:41:56;10.40;99.90
26589;DHT22;14235;48.532;8.722;2022-09-27T07:44:22;10.20;99.90
26589;DHT22;14235;48.532;8.722;2022-09-27T07:46:47;10.40;99.90
26589;DHT22;14235;48.532;8.722;2022-09-27T07:49:13;10.40;99.90
26589;DHT22;14235;48.532;8.722;2022-09-27T07:56:30;10.30;99.90
26589;DHT22;14235;48.532;8.722;2022-09-27T08:01:23;10.40;99.90
26589;DHT22;14235;48.532;8.722;2022-09-27T08:03:49;10.40;99.90
26589;DHT22;14235;48.532;8.722;2022-09-27T08:06:14;10.50;99.90
26589;DHT22;14235;48.532;8.722;2022-09-27T08:08:40;10.50;99.90
26589;DHT22;14235;48.532;8.722;2022-09-27T08:11:16;10.70;99.90
26589;DHT22;14235;48.532;8.722;2022-09-27T08:13:43;10.90;99.90
26589;DHT22;14235;48.532;8.722;2022-09-27T08:16:09;11.10;99.90
26589;DHT22;14235;48.532;8.722;2022-09-27T08:18:41;11.00;99.90
26589;DHT22;14235;48.532;8.722;2022-09-27T08:21:07;10.90;99.90
26589;DHT22;14235;48.532;8.722;2022-09-27T08:23:32;10.70;99.90
26589;DHT22;14235;48.532;8.722;2022-09-27T08:25:58;11.00;99.90
26589;DHT22;14235;48.532;8.722;2022-09-27T08:28:25;10.60;99.90
26589;DHT22;14235;48.532;8.722;2022-09-27T08:30:51;11.10;99.90
26589;DHT22;14235;48.532;8.722;2022-09-27T08:33:17;10.70;99.90
26589;DHT22;14235;48.532;8.722;2022-09-27T08:35:43;11.30;99.90
26589;DHT22;14235;48.532;8.722;2022-09-27T08:38:09;10.70;99.90
26589;DHT22;14235;48.532;8.722;2022-09-27T08:40:54;10.60;99.90
26589;DHT22;14235;48.532;8.722;2022-09-27T08:46:28;10.20;99.90
26589;DHT22;14235;48.532;8.722;2022-09-27T08:49:11;10.40;99.90
26589;DHT22;14235;48.532;8.722;2022-09-27T08:51:40;10.20;99.90
26589;DHT22;14235;48.532;8.722;2022-09-27T08:54:13;10.20;99.90
26589;DHT22;14235;48.532;8.722;2022-09-27T08:56:40;10.20;99.90
26589;DHT22;14235;48.532;8.722;2022-09-27T09:01:37;10.30;99.90
26589;DHT22;14235;48.532;8.722;2022-09-27T09:04:04;10.30;99.90
26589;DHT22;14235;48.532;8.722;2022-09-27T09:09:30;10.60;99.90
26589;DHT22;14235;48.532;8.722;2022-09-27T09:12:25;10.70;99.90
26589;DHT22;14235;48.532;8.722;2022-09-27T09:24:05;11.10;99.90
26589;DHT22;14235;48.532;8.722;2022-09-27T09:32:04;11.30;99.90
26589;DHT22;14235;48.532;8.722;2022-09-27T09:34:37;11.30;99.90
26589;DHT22;14235;48.532;8.722;2022-09-27T09:37:19;12.30;99.90
26589;DHT22;14235;48.532;8.722;2022-09-27T09:39:59;11.50;99.90
26589;DHT22;14235;48.532;8.722;2022-09-27T09:42:38;12.20;99.90
26589;DHT22;14235;48.532;8.722;2022-09-27T09:45:13;11.50;99.90
26589;DHT22;14235;48.532;8.722;2022-09-27T09:47:56;11.60;99.90
26589;DHT22;14235;48.532;8.722;2022-09-27T09:50:40;11.70;99.90
26589;DHT22;14235;48.532;8.722;2022-09-27T09:53:43;11.60;99.90
26589;DHT22;14235;48.532;8.722;2022-09-27T09:56:19;11.70;99.90
26589;DHT22;14235;48.532;8.722;2022-09-27T09:58:59;11.70;99.90
26589;DHT22;14235;48.532;8.722;2022-09-27T10:01:33;11.50;99.90
26589;DHT22;14235;48.532;8.722;2022-09-27T10:04:00;11.60;99.90
26589;DHT22;14235;48.532;8.722;2022-09-27T10:06:28;11.60;99.90
26589;DHT22;14235;48.532;8.722;2022-09-27T10:08:54;12.10;99.90
26589;DHT22;14235;48.532;8.722;2022-09-27T10:11:25;11.90;99.90
26589;DHT22;14235;48.532;8.722;2022-09-27T10:13:51;12.30;99.90
26589;DHT22;14235;48.532;8.722;2022-09-27T10:16:19;11.90;99.90
26589;DHT22;14235;48.532;8.722;2022-09-27T10:21:19;11.80;99.90
26589;DHT22;14235;48.532;8.722;2022-09-27T10:26:36;11.80;99.90
26589;DHT22;14235;48.532;8.722;2022-09-27T10:31:45;11.90;99.90
26589;DHT22;14235;48.532;8.722;2022-09-27T10:34:34;11.70;99.90
26589;DHT22;14235;48.532;8.722;2022-09-27T10:37:16;11.90;99.90
26589;DHT22;14235;48.532;8.722;2022-09-27T10:39:45;12.00;99.90
26589;DHT22;14235;48.532;8.722;2022-09-27T10:42:34;11.90;99.90
26589;DHT22;14235;48.532;8.722;2022-09-27T10:45:29;12.10;99.90
26589;DHT22;14235;48.532;8.722;2022-09-27T10:47:56;12.20;99.90
26589;DHT22;14235;48.532;8.722;2022-09-27T10:50:28;12.20;99.90
26589;DHT22;14235;48.532;8.722;2022-09-27T10:53:05;12.60;99.90
26589;DHT22;14235;48.532;8.722;2022-09-27T10:55:34;12.40;99.90
26589;DHT22;14235;48.532;8.722;2022-09-27T10:58:01;12.60;99.90
26589;DHT22;14235;48.532;8.722;2022-09-27T11:00:32;12.30;99.90
26589;DHT22;14235;48.532;8.722;2022-09-27T11:03:13;12.40;99.90
26589;DHT22;14235;48.532;8.722;2022-09-27T11:05:39;11.80;99.90
26589;DHT22;14235;48.532;8.722;2022-09-27T11:10:44;13.00;99.90
26589;DHT22;14235;48.532;8.722;2022-09-27T11:13:24;13.00;99.90
26589;DHT22;14235;48.532;8.722;2022-09-27T11:23:55;12.40;99.90
26589;DHT22;14235;48.532;8.722;2022-09-27T11:26:49;12.30;99.90
26589;DHT22;14235;48.532;8.722;2022-09-27T11:32:21;12.30;99.90
26589;DHT22;14235;48.532;8.722;2022-09-27T11:46:00;12.10;99.90
26589;DHT22;14235;48.532;8.722;2022-09-27T11:52:01;12.10;99.90
26589;DHT22;14235;48.532;8.722;2022-09-27T11:57:32;12.30;99.90
26589;DHT22;14235;48.532;8.722;2022-09-27T12:00:54;12.00;99.90
26589;DHT22;14235;48.532;8.722;2022-09-27T12:03:51;12.00;99.90
26589;DHT22;14235;48.532;8.722;2022-09-27T12:09:41;11.80;99.90
26589;DHT22;14235;48.532;8.722;2022-09-27T12:12:17;12.20;99.90
26589;DHT22;14235;48.532;8.722;2022-09-27T12:14:49;11.90;99.90
26589;DHT22;14235;48.532;8.722;2022-09-27T12:17:23;12.50;99.90
26589;DHT22;14235;48.532;8.722;2022-09-27T12:19:54;12.90;99.90
26589;DHT22;14235;48.532;8.722;2022-09-27T12:22:25;12.10;99.90
26589;DHT22;14235;48.532;8.722;2022-09-27T12:24:52;12.70;99.90
26589;DHT22;14235;48.532;8.722;2022-09-27T12:27:31;11.70;99.90
26589;DHT22;14235;48.532;8.722;2022-09-27T12:29:58;11.90;99.90
26589;DHT22;14235;48.532;8.722;2022-09-27T12:32:30;12.30;99.90
26589;DHT22;14235;48.532;8.722;2022-09-27T12:37:43;12.20;99.90
26589;DHT22;14235;48.532;8.722;2022-09-27T12:40:30;12.40;99.90
26589;DHT22;14235;48.532;8.722;2022-09-27T12:43:17;12.40;99.90
26589;DHT22;14235;48.532;8.722;2022-09-27T12:45:53;12.40;99.90
26589;DHT22;14235;48.532;8.722;2022-09-27T12:51:08;12.70;99.90
26589;DHT22;14235;48.532;8.722;2022-09-27T12:56:56;12.40;99.90
26589;DHT22;14235;48.532;8.722;2022-09-27T13:00:02;12.50;99.90
26589;DHT22;14235;48.532;8.722;2022-09-27T13:13:32;13.20;99.90
26589;DHT22;14235;48.532;8.722;2022-09-27T13:16:00;13.60;99.90
26589;DHT22;14235;48.532;8.722;2022-09-27T13:21:05;13.70;99.90
26589;DHT22;14235;48.532;8.722;2022-09-27T13:25:58;13.60;99.90
26589;DHT22;14235;48.532;8.722;2022-09-27T13:30:58;14.00;99.90
26589;DHT22;14235;48.532;8.722;2022-09-27T13:33:31;13.80;99.90
26589;DHT22;14235;48.532;8.722;2022-09-27T13:44:30;13.40;99.90
26589;DHT22;14235;48.532;8.722;2022-09-27T13:47:18;13.60;99.90
26589;DHT22;14235;48.532;8.722;2022-09-27T13:49:49;13.30;99.90
26589;DHT22;14235;48.532;8.722;2022-09-27T13:52:21;13.50;99.90
26589;DHT22;14235;48.532;8.722;2022-09-27T13:54:50;13.40;99.90
26589;DHT22;14235;48.532;8.722;2022-09-27T14:00:19;13.00;99.90
26589;DHT22;14235;48.532;8.722;2022-09-27T14:03:05;13.40;99.90
26589;DHT22;14235;48.532;8.722;2022-09-27T14:05:39;13.80;99.90
26589;DHT22;14235;48.532;8.722;2022-09-27T14:08:10;15.70;99.90
26589;DHT22;14235;48.532;8.722;2022-09-27T14:10:42;17.30;99.90
26589;DHT22;14235;48.532;8.722;2022-09-27T14:13:08;17.80;99.90
26589;DHT22;14235;48.532;8.722;2022-09-27T14:15:35;17.70;99.90
26589;DHT22;14235;48.532;8.722;2022-09-27T14:18:01;17.20;99.90
26589;DHT22;14235;48.532;8.722;2022-09-27T14:25:23;16.60;99.90
26589;DHT22;14235;48.532;8.722;2022-09-27T14:27:50;17.00;99.90
26589;DHT22;14235;48.532;8.722;2022-09-27T14:30:18;16.80;99.90
26589;DHT22;14235;48.532;8.722;2022-09-27T14:32:52;16.60;99.90
26589;DHT22;14235;48.532;8.722;2022-09-27T14:35:29;16.10;99.90
26589;DHT22;14235;48.532;8.722;2022-09-27T14:38:21;15.50;99.90
26589;DHT22;14235;48.532;8.722;2022-09-27T14:41:00;15.00;99.90
26589;DHT22;14235;48.532;8.722;2022-09-27T14:43:27;15.50;99.90
26589;DHT22;14235;48.532;8.722;2022-09-27T14:45:59;15.10;99.90
26589;DHT22;14235;48.532;8.722;2022-09-27T14:48:31;16.00;99.90
26589;DHT22;14235;48.532;8.722;2022-09-27T14:50:59;16.30;99.90
26589;DHT22;14235;48.532;8.722;2022-09-27T14:53:40;15.90;99.90
26589;DHT22;14235;48.532;8.722;2022-09-27T14:56:08;14.90;99.90
26589;DHT22;14235;48.532;8.722;2022-09-27T14:58:36;15.50;99.90
26589;DHT22;14235;48.532;8.722;2022-09-27T15:01:02;14.40;99.90
26589;DHT22;14235;48.532;8.722;2022-09-27T15:03:31;15.40;99.90
26589;DHT22;14235;48.532;8.722;2022-09-27T15:05:58;14.20;99.90
26589;DHT22;14235;48.532;8.722;2022-09-27T15:08:27;14.20;99.90
26589;DHT22;14235;48.532;8.722;2022-09-27T15:10:59;14.50;99.90
26589;DHT22;14235;48.532;8.722;2022-09-27T15:15:53;13.00;99.90
26589;DHT22;14235;48.532;8.722;2022-09-27T15:21:35;12.80;99.90
26589;DHT22;14235;48.532;8.722;2022-09-27T15:24:01;12.80;99.90
26589;DHT22;14235;48.532;8.722;2022-09-27T15:26:46;12.70;99.90
26589;DHT22;14235;48.532;8.722;2022-09-27T15:29:18;12.90;99.90
26589;DHT22;14235;48.532;8.722;2022-09-27T15:31:44;13.10;99.90
26589;DHT22;14235;48.532;8.722;2022-09-27T15:34:17;13.20;99.90
26589;DHT22;14235;48.532;8.722;2022-09-27T15:39:29;13.80;99.90
26589;DHT22;14235;48.532;8.722;2022-09-27T15:52:39;12.60;99.90
26589;DHT22;14235;48.532;8.722;2022-09-27T16:00:05;12.70;99.90
26589;DHT22;14235;48.532;8.722;2022-09-27T16:02:31;12.60;99.90
26589;DHT22;14235;48.532;8.722;2022-09-27T16:04:57;12.40;99.90
26589;DHT22;14235;48.532;8.722;2022-09-27T16:07:22;12.60;99.90
26589;DHT22;14235;48.532;8.722;2022-09-27T16:09:48;12.60;99.90
26589;DHT22;14235;48.532;8.722;2022-09-27T16:12:16;12.50;99.90
26589;DHT22;14235;48.532;8.722;2022-09-27T16:14:42;12.20;99.90
26589;DHT22;14235;48.532;8.722;2022-09-27T16:17:08;13.10;99.90
26589;DHT22;14235;48.532;8.722;2022-09-27T16:19:34;12.50;99.90
26589;DHT22;14235;48.532;8.722;2022-09-27T16:22:00;12.10;99.90
26589;DHT22;14235;48.532;8.722;2022-09-27T16:24:28;12.00;99.90
26589;DHT22;14235;48.532;8.722;2022-09-27T16:26:54;11.90;99.90
26589;DHT22;14235;48.532;8.722;2022-09-27T16:29:19;11.90;99.90
26589;DHT22;14235;48.532;8.722;2022-09-27T16:31:46;11.90;99.90
26589;DHT22;14235;48.532;8.722;2022-09-27T16:34:11;11.70;99.90
26589;DHT22;14235;48.532;8.722;2022-09-27T16:36:37;11.60;99.90
26589;DHT22;14235;48.532;8.722;2022-09-27T16:39:05;11.50;99.90
26589;DHT22;14235;48.532;8.722;2022-09-27T16:43:58;11.50;99.90
26589;DHT22;14235;48.532;8.722;2022-09-27T16:56:33;11.40;99.90
26589;DHT22;14235;48.532;8.722;2022-09-27T16:59:00;11.50;99.90
26589;DHT22;14235;48.532;8.722;2022-09-27T17:01:32;12.30;99.90
26589;DHT22;14235;48.532;8.722;2022-09-27T17:04:01;11.40;99.90
26589;DHT22;14235;48.532;8.722;2022-09-27T17:06:26;11.30;99.90
26589;DHT22;14235;48.532;8.722;2022-09-27T17:08:56;11.20;99.90
26589;DHT22;14235;48.532;8.722;2022-09-27T17:11:22;11.90;99.90
26589;DHT22;14235;48.532;8.722;2022-09-27T17:13:51;12.50;99.90
26589;DHT22;14235;48.532;8.722;2022-09-27T17:16:17;11.90;99.90
26589;DHT22;14235;48.532;8.722;2022-09-27T17:18:43;11.20;99.90
26589;DHT22;14235;48.532;8.722;2022-09-27T17:21:09;12.70;99.90
26589;DHT22;14235;48.532;8.722;2022-09-27T17:23:36;11.10;99.90
26589;DHT22;14235;48.532;8.722;2022-09-27T17:26:14;11.90;99.90
26589;DHT22;14235;48.532;8.722;2022-09-27T17:28:39;11.00;99.90
26589;DHT22;14235;48.532;8.722;2022-09-27T17:31:08;10.80;99.90
26589;DHT22;14235;48.532;8.722;2022-09-27T17:33:36;11.40;99.90
26589;DHT22;14235;48.532;8.722;2022-09-27T17:36:08;10.80;99.90
26589;DHT22;14235;48.532;8.722;2022-09-27T17:38:35;11.70;99.90
26589;DHT22;14235;48.532;8.722;2022-09-27T17:41:09;11.20;99.90
26589;DHT22;14235;48.532;8.722;2022-09-27T17:43:38;10.80;99.90
26589;DHT22;14235;48.532;8.722;2022-09-27T17:48:36;10.60;99.90
26589;DHT22;14235;48.532;8.722;2022-09-27T17:51:21;10.60;99.90
26589;DHT22;14235;48.532;8.722;2022-09-27T17:53:47;10.60;99.90
26589;DHT22;14235;48.532;8.722;2022-09-27T17:56:15;11.20;99.90
26589;DHT22;14235;48.532;8.722;2022-09-27T17:58:52;10.60;99.90
26589;DHT22;14235;48.532;8.722;2022-09-27T18:01:19;11.10;99.90
26589;DHT22;14235;48.532;8.722;2022-09-27T18:03:45;10.80;99.90
26589;DHT22;14235;48.532;8.722;2022-09-27T18:06:14;10.90;99.90
26589;DHT22;14235;48.532;8.722;2022-09-27T18:08:41;11.90;99.90
26589;DHT22;14235;48.532;8.722;2022-09-27T18:11:10;11.10;99.90
26589;DHT22;14235;48.532;8.722;2022-09-27T18:13:36;10.60;99.90
26589;DHT22;14235;48.532;8.722;2022-09-27T18:18:36;10.60;99.90
26589;DHT22;14235;48.532;8.722;2022-09-27T18:21:12;11.00;99.90
26589;DHT22;14235;48.532;8.722;2022-09-27T18:26:09;10.40;99.90
26589;DHT22;14235;48.532;8.722;2022-09-27T18:28:36;10.20;99.90
26589;DHT22;14235;48.532;8.722;2022-09-27T18:31:05;12.00;99.90
26589;DHT22;14235;48.532;8.722;2022-09-27T18:33:31;10.40;99.90
26589;DHT22;14235;48.532;8.722;2022-09-27T18:38:29;10.40;99.90
26589;DHT22;14235;48.532;8.722;2022-09-27T18:40:56;9.90;99.90
26589;DHT22;14235;48.532;8.722;2022-09-27T18:43:23;10.20;99.90
26589;DHT22;14235;48.532;8.722;2022-09-27T18:45:50;10.10;99.90
26589;DHT22;14235;48.532;8.722;2022-09-27T18:48:15;11.30;99.90
26589;DHT22;14235;48.532;8.722;2022-09-27T18:50:41;10.20;99.90
26589;DHT22;14235;48.532;8.722;2022-09-27T18:53:07;9.90;99.90
26589;DHT22;14235;48.532;8.722;2022-09-27T18:55:37;10.10;99.90
26589;DHT22;14235;48.532;8.722;2022-09-27T18:58:03;10.10;99.90
26589;DHT22;14235;48.532;8.722;2022-09-27T19:00:29;10.30;99.90
26589;DHT22;14235;48.532;8.722;2022-09-27T19:02:56;10.00;99.90
26589;DHT22;14235;48.532;8.722;2022-09-27T19:05:21;10.10;99.90
26589;DHT22;14235;48.532;8.722;2022-09-27T19:07:47;10.40;99.90
26589;DHT22;14235;48.532;8.722;2022-09-27T19:10:12;10.00;99.90
26589;DHT22;14235;48.532;8.722;2022-09-27T19:12:39;10.20;99.90
26589;DHT22;14235;48.532;8.722;2022-09-27T19:15:06;10.40;99.90
26589;DHT22;14235;48.532;8.722;2022-09-27T19:17:32;10.20;99.90
26589;DHT22;14235;48.532;8.722;2022-09-27T19:19:57;10.00;99.90
26589;DHT22;14235;48.532;8.722;2022-09-27T19:22:23;10.90;99.90
26589;DHT22;14235;48.532;8.722;2022-09-27T19:27:15;9.60;99.90
26589;DHT22;14235;48.532;8.722;2022-09-27T19:29:41;9.90;99.90
26589;DHT22;14235;48.532;8.722;2022-09-27T19:32:06;9.40;99.90
26589;DHT22;14235;48.532;8.722;2022-09-27T19:34:32;9.50;99.90
26589;DHT22;14235;48.532;8.722;2022-09-27T19:36:57;9.20;99.90
26589;DHT22;14235;48.532;8.722;2022-09-27T19:39:23;9.40;99.90